Flugplatz Ahrenlohe (EDHO)

Hier findest Du alle Informationen zum Flugplatz Ahrenlohe (EDHO).

Informationen für Piloten zum Flugplatz Ahrenlohe

Hier findest Du alle relevanten Informationen, die Du als Pilot benötigst, um Ahrenlohe anzufliegen.

Flugplatz: Ahrenlohe ICAO-Code: EDHO
Frequenz Turm: 122,600 Mhz GAFOR Gebiet: 3
Frequenz Ground: 122,600 Mhz Mogas: nein
Platzrunde: SE 1000 ft Landegebühr: -
Platzhöhe: - Sunrise: 02:59 Uhr UTC
Pisten: 05/23 - 500 m x 15 m, ASPH Sunset: 19:37 Uhr UTC

Flugwetter am Flugplatz Ahrenlohe

Die METAR Information stammen aus EDDH (18.06 km entfernt).

METAR Code:
2022/05/15 08:20
EDDH 150820Z AUTO 10004KT 040V160 CAVOK 16/06 Q1023 NOSIG

Temperatur: 11,7 °C Niederschlag: - Wind: 3,5 kt (max.: 12,2 kt in Böen)
Temperatur (min.): 11,0 °C Luftdruck: 1014 hPa Windrichtung: 355 °
Temperatur (max.): 12,5 °C Luftfeuchtigkeit: 80 % Bewölkung: 1/8

Flugschulen am Flugplatz Ahrenlohe

Am Flugplatz Ahrenlohe gibt es leider keine Flugschule.

Benachbarte Flugplätze und Flugschulen

Es gibt 9 weitere Flugplätze in einem Umkreis von 50 km um den Flugplatz Ahrenlohe.

Jetzt anmelden

Passwort vergessen

Umfrage Archiv

Sendet Ihr ADS-B und/oder FLARM?

Ja
81.8 %
Nein
18.2 %
Stimmen: 148 | Diskussion
Anzeige: Roland Aircraft
Statistik Alle Mitglieder

Aktuell sind 73 Besucher online, davon 3 Mitglieder und 70 Gäste.


Mitglieder online:
RalphG  Johnny3011  Heli 

Anzeige: ULPower Aero Engines Anzeige: Pocket FMS